sensor_id;sensor_type;location;lat;lon;timestamp;pressure;altitude;pressure_sealevel;temperature;humidity
11049;BME280;5577;42.706;23.160;2023-06-10T00:02:18;93797.47;;;17.94;100.00
11049;BME280;5577;42.706;23.160;2023-06-10T00:05:02;93802.75;;;18.01;100.00
11049;BME280;5577;42.706;23.160;2023-06-10T00:07:46;93798.25;;;17.91;100.00
11049;BME280;5577;42.706;23.160;2023-06-10T00:10:31;93803.13;;;18.00;100.00
11049;BME280;5577;42.706;23.160;2023-06-10T00:13:15;93790.19;;;17.95;100.00
11049;BME280;5577;42.706;23.160;2023-06-10T00:16:00;93781.72;;;18.00;100.00
11049;BME280;5577;42.706;23.160;2023-06-10T00:18:44;93790.22;;;17.91;100.00
11049;BME280;5577;42.706;23.160;2023-06-10T00:21:28;93785.75;;;17.81;100.00
11049;BME280;5577;42.706;23.160;2023-06-10T00:24:12;93789.97;;;17.79;100.00
11049;BME280;5577;42.706;23.160;2023-06-10T00:26:56;93786.91;;;17.80;100.00
11049;BME280;5577;42.706;23.160;2023-06-10T00:29:40;93781.22;;;17.75;100.00
11049;BME280;5577;42.706;23.160;2023-06-10T00:32:24;93783.88;;;17.78;100.00
11049;BME280;5577;42.706;23.160;2023-06-10T00:35:08;93782.72;;;17.79;100.00
11049;BME280;5577;42.706;23.160;2023-06-10T00:37:52;93789.09;;;17.89;100.00
11049;BME280;5577;42.706;23.160;2023-06-10T00:40:39;93771.63;;;17.77;100.00
11049;BME280;5577;42.706;23.160;2023-06-10T00:43:27;93796.22;;;18.02;100.00
11049;BME280;5577;42.706;23.160;2023-06-10T00:46:14;93800.75;;;18.09;100.00
11049;BME280;5577;42.706;23.160;2023-06-10T00:48:59;93795.41;;;18.05;100.00
11049;BME280;5577;42.706;23.160;2023-06-10T00:51:44;93793.88;;;18.08;100.00
11049;BME280;5577;42.706;23.160;2023-06-10T00:54:28;93809.22;;;18.04;100.00
11049;BME280;5577;42.706;23.160;2023-06-10T00:57:12;93801.91;;;18.08;100.00
11049;BME280;5577;42.706;23.160;2023-06-10T00:59:57;93806.50;;;18.07;100.00
11049;BME280;5577;42.706;23.160;2023-06-10T01:02:41;93770.75;;;17.87;100.00
11049;BME280;5577;42.706;23.160;2023-06-10T01:05:26;93796.56;;;18.08;100.00
11049;BME280;5577;42.706;23.160;2023-06-10T01:08:21;93819.84;;;18.11;100.00
11049;BME280;5577;42.706;23.160;2023-06-10T01:11:15;93799.25;;;18.08;100.00
11049;BME280;5577;42.706;23.160;2023-06-10T01:14:03;93803.75;;;18.14;100.00
11049;BME280;5577;42.706;23.160;2023-06-10T01:16:49;93814.81;;;18.16;100.00
11049;BME280;5577;42.706;23.160;2023-06-10T01:19:33;93804.81;;;18.20;100.00
11049;BME280;5577;42.706;23.160;2023-06-10T01:22:21;93804.78;;;18.24;100.00
11049;BME280;5577;42.706;23.160;2023-06-10T01:25:06;93809.41;;;18.20;100.00
11049;BME280;5577;42.706;23.160;2023-06-10T01:27:51;93792.16;;;18.21;100.00
11049;BME280;5577;42.706;23.160;2023-06-10T01:33:55;93784.63;;;18.12;100.00
11049;BME280;5577;42.706;23.160;2023-06-10T01:36:40;93783.16;;;18.08;100.00
11049;BME280;5577;42.706;23.160;2023-06-10T01:39:25;93788.94;;;18.06;100.00
11049;BME280;5577;42.706;23.160;2023-06-10T01:42:10;93777.84;;;18.04;100.00
11049;BME280;5577;42.706;23.160;2023-06-10T01:44:55;93782.78;;;18.06;100.00
11049;BME280;5577;42.706;23.160;2023-06-10T01:47:39;93779.00;;;18.03;100.00
11049;BME280;5577;42.706;23.160;2023-06-10T01:50:23;93775.59;;;17.99;100.00
11049;BME280;5577;42.706;23.160;2023-06-10T01:53:07;93769.94;;;17.94;100.00
11049;BME280;5577;42.706;23.160;2023-06-10T01:55:51;93772.63;;;17.94;100.00
11049;BME280;5577;42.706;23.160;2023-06-10T01:58:35;93768.78;;;17.95;100.00
11049;BME280;5577;42.706;23.160;2023-06-10T02:01:19;93771.41;;;17.98;100.00
11049;BME280;5577;42.706;23.160;2023-06-10T02:04:03;93769.00;;;18.07;100.00
11049;BME280;5577;42.706;23.160;2023-06-10T02:06:47;93764.34;;;18.11;100.00
11049;BME280;5577;42.706;23.160;2023-06-10T02:09:32;93760.09;;;18.17;100.00
11049;BME280;5577;42.706;23.160;2023-06-10T02:12:18;93762.78;;;18.14;100.00
11049;BME280;5577;42.706;23.160;2023-06-10T02:15:02;93763.66;;;18.04;100.00
11049;BME280;5577;42.706;23.160;2023-06-10T02:17:46;93767.13;;;18.04;100.00
11049;BME280;5577;42.706;23.160;2023-06-10T02:20:30;93761.06;;;18.00;100.00
11049;BME280;5577;42.706;23.160;2023-06-10T02:23:14;93767.56;;;17.99;100.00
11049;BME280;5577;42.706;23.160;2023-06-10T02:25:58;93767.13;;;18.04;100.00
11049;BME280;5577;42.706;23.160;2023-06-10T02:28:43;93754.44;;;18.08;100.00
11049;BME280;5577;42.706;23.160;2023-06-10T02:31:27;93753.34;;;18.02;100.00
11049;BME280;5577;42.706;23.160;2023-06-10T02:34:12;93750.72;;;17.99;100.00
11049;BME280;5577;42.706;23.160;2023-06-10T02:36:57;93746.94;;;17.96;100.00
11049;BME280;5577;42.706;23.160;2023-06-10T02:39:41;93708.94;;;17.75;100.00
11049;BME280;5577;42.706;23.160;2023-06-10T02:42:25;93748.81;;;17.99;100.00
11049;BME280;5577;42.706;23.160;2023-06-10T02:45:09;93741.94;;;17.98;100.00
11049;BME280;5577;42.706;23.160;2023-06-10T02:47:53;93716.50;;;17.83;100.00
11049;BME280;5577;42.706;23.160;2023-06-10T02:50:38;93749.22;;;17.98;100.00
11049;BME280;5577;42.706;23.160;2023-06-10T02:53:24;93751.19;;;17.94;100.00
11049;BME280;5577;42.706;23.160;2023-06-10T02:56:08;93753.88;;;17.94;100.00
11049;BME280;5577;42.706;23.160;2023-06-10T02:58:52;93750.88;;;17.88;100.00
11049;BME280;5577;42.706;23.160;2023-06-10T03:01:36;93761.22;;;17.86;100.00
11049;BME280;5577;42.706;23.160;2023-06-10T03:04:20;93760.84;;;17.84;100.00
11049;BME280;5577;42.706;23.160;2023-06-10T03:07:04;93768.78;;;17.91;100.00
11049;BME280;5577;42.706;23.160;2023-06-10T03:09:50;93776.16;;;17.84;100.00
11049;BME280;5577;42.706;23.160;2023-06-10T03:12:34;93778.41;;;17.89;100.00
11049;BME280;5577;42.706;23.160;2023-06-10T03:15:18;93784.13;;;17.91;100.00
11049;BME280;5577;42.706;23.160;2023-06-10T03:18:04;93776.91;;;17.84;100.00
11049;BME280;5577;42.706;23.160;2023-06-10T03:20:48;93779.25;;;17.82;100.00
11049;BME280;5577;42.706;23.160;2023-06-10T03:23:33;93779.72;;;17.74;100.00
11049;BME280;5577;42.706;23.160;2023-06-10T03:26:17;93782.06;;;17.68;100.00
11049;BME280;5577;42.706;23.160;2023-06-10T03:29:01;93781.34;;;17.64;100.00
11049;BME280;5577;42.706;23.160;2023-06-10T03:31:45;93786.31;;;17.66;100.00
11049;BME280;5577;42.706;23.160;2023-06-10T03:34:29;93785.09;;;17.70;100.00
11049;BME280;5577;42.706;23.160;2023-06-10T03:37:17;93780.06;;;17.76;100.00
11049;BME280;5577;42.706;23.160;2023-06-10T03:40:01;93757.19;;;17.71;100.00
11049;BME280;5577;42.706;23.160;2023-06-10T03:42:45;93777.75;;;17.78;100.00
11049;BME280;5577;42.706;23.160;2023-06-10T03:45:29;93767.84;;;17.75;100.00
11049;BME280;5577;42.706;23.160;2023-06-10T03:48:13;93769.78;;;17.74;100.00
11049;BME280;5577;42.706;23.160;2023-06-10T03:50:57;93765.13;;;17.78;100.00
11049;BME280;5577;42.706;23.160;2023-06-10T03:53:42;93766.28;;;17.77;100.00
11049;BME280;5577;42.706;23.160;2023-06-10T03:56:26;93762.09;;;17.76;100.00
11049;BME280;5577;42.706;23.160;2023-06-10T03:59:10;93767.44;;;17.76;100.00
11049;BME280;5577;42.706;23.160;2023-06-10T04:01:54;93772.38;;;17.81;100.00
11049;BME280;5577;42.706;23.160;2023-06-10T04:04:39;93778.06;;;17.87;100.00
11049;BME280;5577;42.706;23.160;2023-06-10T04:07:23;93781.88;;;17.86;100.00
11049;BME280;5577;42.706;23.160;2023-06-10T04:10:07;93779.25;;;17.82;100.00
11049;BME280;5577;42.706;23.160;2023-06-10T04:12:52;93774.38;;;17.70;100.00
11049;BME280;5577;42.706;23.160;2023-06-10T04:15:36;93740.50;;;17.57;100.00
11049;BME280;5577;42.706;23.160;2023-06-10T04:18:21;93786.09;;;17.87;100.00
11049;BME280;5577;42.706;23.160;2023-06-10T04:21:08;93780.34;;;17.85;100.00
11049;BME280;5577;42.706;23.160;2023-06-10T04:23:54;93784.91;;;17.88;100.00
11049;BME280;5577;42.706;23.160;2023-06-10T04:26:39;93781.00;;;17.96;100.00
11049;BME280;5577;42.706;23.160;2023-06-10T04:29:22;93788.19;;;18.02;100.00
11049;BME280;5577;42.706;23.160;2023-06-10T04:32:07;93787.28;;;18.16;100.00
11049;BME280;5577;42.706;23.160;2023-06-10T04:34:51;93787.22;;;18.19;100.00
11049;BME280;5577;42.706;23.160;2023-06-10T04:37:35;93781.19;;;18.12;100.00
11049;BME280;5577;42.706;23.160;2023-06-10T04:40:19;93784.06;;;17.94;100.00
11049;BME280;5577;42.706;23.160;2023-06-10T04:43:03;93781.47;;;17.87;100.00
11049;BME280;5577;42.706;23.160;2023-06-10T04:45:47;93794.69;;;18.01;100.00
11049;BME280;5577;42.706;23.160;2023-06-10T04:48:31;93791.22;;;18.04;100.00
11049;BME280;5577;42.706;23.160;2023-06-10T04:51:18;93789.94;;;18.16;100.00
11049;BME280;5577;42.706;23.160;2023-06-10T04:54:02;93784.53;;;18.19;100.00
11049;BME280;5577;42.706;23.160;2023-06-10T04:56:47;93746.94;;;17.96;100.00
11049;BME280;5577;42.706;23.160;2023-06-10T04:59:31;93785.25;;;18.23;100.00
11049;BME280;5577;42.706;23.160;2023-06-10T05:02:15;93781.69;;;18.33;100.00
11049;BME280;5577;42.706;23.160;2023-06-10T05:04:59;93785.09;;;18.37;100.00
11049;BME280;5577;42.706;23.160;2023-06-10T05:07:43;93779.31;;;18.42;100.00
11049;BME280;5577;42.706;23.160;2023-06-10T05:10:27;93776.16;;;18.47;100.00
11049;BME280;5577;42.706;23.160;2023-06-10T05:13:11;93778.75;;;18.54;100.00
11049;BME280;5577;42.706;23.160;2023-06-10T05:15:55;93786.66;;;18.65;100.00
11049;BME280;5577;42.706;23.160;2023-06-10T05:18:39;93789.16;;;18.79;100.00
11049;BME280;5577;42.706;23.160;2023-06-10T05:21:23;93792.84;;;18.88;100.00
11049;BME280;5577;42.706;23.160;2023-06-10T05:24:07;93789.56;;;19.00;100.00
11049;BME280;5577;42.706;23.160;2023-06-10T05:26:52;93787.56;;;19.08;100.00
11049;BME280;5577;42.706;23.160;2023-06-10T05:29:35;93783.41;;;19.03;100.00
11049;BME280;5577;42.706;23.160;2023-06-10T05:32:19;93785.78;;;18.98;100.00
11049;BME280;5577;42.706;23.160;2023-06-10T05:35:03;93791.91;;;18.98;100.00
11049;BME280;5577;42.706;23.160;2023-06-10T05:37:48;93792.09;;;19.11;100.00
11049;BME280;5577;42.706;23.160;2023-06-10T05:40:33;93790.53;;;19.13;100.00
11049;BME280;5577;42.706;23.160;2023-06-10T05:43:17;93792.81;;;19.15;100.00
11049;BME280;5577;42.706;23.160;2023-06-10T05:46:00;93790.38;;;19.24;100.00
11049;BME280;5577;42.706;23.160;2023-06-10T05:48:44;93791.03;;;19.31;100.00
11049;BME280;5577;42.706;23.160;2023-06-10T05:51:28;93787.09;;;19.39;100.00
11049;BME280;5577;42.706;23.160;2023-06-10T05:54:12;93787.72;;;19.47;100.00
11049;BME280;5577;42.706;23.160;2023-06-10T05:56:56;93784.97;;;19.50;100.00
11049;BME280;5577;42.706;23.160;2023-06-10T05:59:40;93782.69;;;19.49;100.00
11049;BME280;5577;42.706;23.160;2023-06-10T06:02:24;93789.69;;;19.66;100.00
11049;BME280;5577;42.706;23.160;2023-06-10T06:05:08;93791.06;;;19.74;100.00
11049;BME280;5577;42.706;23.160;2023-06-10T06:07:52;93791.91;;;19.91;100.00
11049;BME280;5577;42.706;23.160;2023-06-10T06:10:36;93789.63;;;19.89;100.00
11049;BME280;5577;42.706;23.160;2023-06-10T06:13:20;93792.53;;;19.78;100.00
11049;BME280;5577;42.706;23.160;2023-06-10T06:16:04;93789.63;;;19.89;100.00
11049;BME280;5577;42.706;23.160;2023-06-10T06:18:48;93790.59;;;19.99;100.00
11049;BME280;5577;42.706;23.160;2023-06-10T06:21:32;93795.44;;;20.07;100.00
11049;BME280;5577;42.706;23.160;2023-06-10T06:24:16;93800.81;;;20.07;100.00
11049;BME280;5577;42.706;23.160;2023-06-10T06:27:00;93800.28;;;20.16;100.00
11049;BME280;5577;42.706;23.160;2023-06-10T06:29:44;93797.03;;;20.05;100.00
11049;BME280;5577;42.706;23.160;2023-06-10T06:32:28;93802.88;;;20.00;100.00
11049;BME280;5577;42.706;23.160;2023-06-10T06:35:12;93800.19;;;20.00;100.00
11049;BME280;5577;42.706;23.160;2023-06-10T06:37:56;93801.53;;;20.11;100.00
11049;BME280;5577;42.706;23.160;2023-06-10T06:40:40;93805.03;;;20.08;100.00
11049;BME280;5577;42.706;23.160;2023-06-10T06:43:24;93792.84;;;20.23;100.00
11049;BME280;5577;42.706;23.160;2023-06-10T06:46:08;93765.31;;;19.96;100.00
11049;BME280;5577;42.706;23.160;2023-06-10T06:48:53;93790.13;;;20.04;100.00
11049;BME280;5577;42.706;23.160;2023-06-10T06:51:36;93783.47;;;20.12;100.00
11049;BME280;5577;42.706;23.160;2023-06-10T06:54:21;93792.13;;;20.00;100.00
11049;BME280;5577;42.706;23.160;2023-06-10T06:57:05;93780.50;;;20.26;100.00
11049;BME280;5577;42.706;23.160;2023-06-10T06:59:49;93709.81;;;19.90;100.00
11049;BME280;5577;42.706;23.160;2023-06-10T07:02:33;93780.88;;;20.63;100.00
11049;BME280;5577;42.706;23.160;2023-06-10T07:05:17;93774.88;;;20.91;100.00
11049;BME280;5577;42.706;23.160;2023-06-10T07:08:01;93772.06;;;21.14;100.00
11049;BME280;5577;42.706;23.160;2023-06-10T07:10:45;93766.16;;;21.19;100.00
11049;BME280;5577;42.706;23.160;2023-06-10T07:13:29;93763.66;;;21.28;100.00
11049;BME280;5577;42.706;23.160;2023-06-10T07:16:13;93760.94;;;21.44;100.00
11049;BME280;5577;42.706;23.160;2023-06-10T07:18:57;93760.44;;;21.49;100.00
11049;BME280;5577;42.706;23.160;2023-06-10T07:21:41;93762.53;;;21.58;100.00
11049;BME280;5577;42.706;23.160;2023-06-10T07:24:26;93761.34;;;21.59;100.00
11049;BME280;5577;42.706;23.160;2023-06-10T07:27:09;93757.56;;;21.40;100.00
11049;BME280;5577;42.706;23.160;2023-06-10T07:29:53;93751.69;;;21.29;100.00
11049;BME280;5577;42.706;23.160;2023-06-10T07:32:37;93757.50;;;21.28;100.00
11049;BME280;5577;42.706;23.160;2023-06-10T07:35:21;93756.78;;;21.56;100.00
11049;BME280;5577;42.706;23.160;2023-06-10T07:38:05;93757.56;;;21.56;100.00
11049;BME280;5577;42.706;23.160;2023-06-10T07:40:49;93757.47;;;21.76;100.00
11049;BME280;5577;42.706;23.160;2023-06-10T07:43:33;93752.31;;;21.65;100.00
11049;BME280;5577;42.706;23.160;2023-06-10T07:46:17;93667.34;;;21.04;100.00
11049;BME280;5577;42.706;23.160;2023-06-10T07:49:01;93756.19;;;21.64;100.00
11049;BME280;5577;42.706;23.160;2023-06-10T07:51:46;93753.97;;;21.47;100.00
11049;BME280;5577;42.706;23.160;2023-06-10T07:54:29;93754.09;;;21.56;100.00
11049;BME280;5577;42.706;23.160;2023-06-10T07:57:13;93756.81;;;21.72;100.00
11049;BME280;5577;42.706;23.160;2023-06-10T07:59:58;93761.03;;;22.01;100.00
11049;BME280;5577;42.706;23.160;2023-06-10T08:02:44;93740.59;;;22.29;100.00
11049;BME280;5577;42.706;23.160;2023-06-10T08:05:28;93756.03;;;22.41;100.00
11049;BME280;5577;42.706;23.160;2023-06-10T08:08:13;93751.88;;;22.65;100.00
11049;BME280;5577;42.706;23.160;2023-06-10T08:10:57;93745.75;;;22.52;100.00
11049;BME280;5577;42.706;23.160;2023-06-10T08:13:41;93750.69;;;22.54;100.00
11049;BME280;5577;42.706;23.160;2023-06-10T08:16:25;93739.81;;;22.95;100.00
11049;BME280;5577;42.706;23.160;2023-06-10T08:19:09;93739.03;;;23.19;100.00
11049;BME280;5577;42.706;23.160;2023-06-10T08:21:53;93740.41;;;23.49;100.00
11049;BME280;5577;42.706;23.160;2023-06-10T08:24:37;93741.97;;;23.59;100.00
11049;BME280;5577;42.706;23.160;2023-06-10T08:27:21;93738.31;;;23.87;100.00
11049;BME280;5577;42.706;23.160;2023-06-10T08:30:05;93737.09;;;23.66;100.00
11049;BME280;5577;42.706;23.160;2023-06-10T08:32:50;93734.00;;;23.55;100.00
11049;BME280;5577;42.706;23.160;2023-06-10T08:35:35;93732.47;;;23.88;100.00
11049;BME280;5577;42.706;23.160;2023-06-10T08:38:19;93734.97;;;24.17;100.00
11049;BME280;5577;42.706;23.160;2023-06-10T08:41:05;93732.97;;;24.30;100.00
11049;BME280;5577;42.706;23.160;2023-06-10T08:46:37;93728.06;;;24.16;100.00
11049;BME280;5577;42.706;23.160;2023-06-10T08:49:23;93724.25;;;24.13;100.00
11049;BME280;5577;42.706;23.160;2023-06-10T08:52:13;93725.69;;;24.48;97.06
11049;BME280;5577;42.706;23.160;2023-06-10T08:55:04;93722.53;;;24.71;96.75
11049;BME280;5577;42.706;23.160;2023-06-10T08:57:49;93720.41;;;25.15;96.52
11049;BME280;5577;42.706;23.160;2023-06-10T09:00:34;93710.06;;;25.23;100.00
11049;BME280;5577;42.706;23.160;2023-06-10T09:03:20;93716.00;;;24.99;95.15
11049;BME280;5577;42.706;23.160;2023-06-10T09:06:05;93716.13;;;24.87;100.00
11049;BME280;5577;42.706;23.160;2023-06-10T09:08:50;93712.03;;;24.82;100.00
11049;BME280;5577;42.706;23.160;2023-06-10T09:11:34;93697.00;;;24.81;99.04
11049;BME280;5577;42.706;23.160;2023-06-10T09:14:18;93703.66;;;25.65;94.84
11049;BME280;5577;42.706;23.160;2023-06-10T09:17:03;93708.47;;;26.24;91.33
11049;BME280;5577;42.706;23.160;2023-06-10T09:19:47;93721.22;;;26.69;85.70
11049;BME280;5577;42.706;23.160;2023-06-10T09:22:33;93714.06;;;26.89;79.49
11049;BME280;5577;42.706;23.160;2023-06-10T09:25:17;93704.84;;;26.87;71.00
11049;BME280;5577;42.706;23.160;2023-06-10T09:28:01;93694.16;;;26.83;75.98
11049;BME280;5577;42.706;23.160;2023-06-10T09:30:45;93698.47;;;26.99;77.90
11049;BME280;5577;42.706;23.160;2023-06-10T09:33:29;93698.94;;;26.97;73.43
11049;BME280;5577;42.706;23.160;2023-06-10T09:36:22;93689.47;;;26.33;77.01
11049;BME280;5577;42.706;23.160;2023-06-10T09:39:15;93692.38;;;25.94;80.50
11049;BME280;5577;42.706;23.160;2023-06-10T09:41:59;93692.97;;;26.07;80.04
11049;BME280;5577;42.706;23.160;2023-06-10T09:44:51;93694.59;;;26.40;76.66
11049;BME280;5577;42.706;23.160;2023-06-10T09:47:35;93683.63;;;26.76;75.28
11049;BME280;5577;42.706;23.160;2023-06-10T09:50:19;93685.78;;;26.96;78.64
11049;BME280;5577;42.706;23.160;2023-06-10T09:53:06;93683.19;;;26.00;77.14
11049;BME280;5577;42.706;23.160;2023-06-10T09:55:52;93685.63;;;26.49;80.62
11049;BME280;5577;42.706;23.160;2023-06-10T09:58:39;93667.84;;;26.57;77.21
11049;BME280;5577;42.706;23.160;2023-06-10T10:01:26;93670.38;;;26.69;76.94
11049;BME280;5577;42.706;23.160;2023-06-10T10:04:10;93671.06;;;26.88;75.19
11049;BME280;5577;42.706;23.160;2023-06-10T10:06:54;93677.31;;;26.02;76.79
11049;BME280;5577;42.706;23.160;2023-06-10T10:09:39;93676.41;;;25.51;82.20
11049;BME280;5577;42.706;23.160;2023-06-10T10:12:24;93670.16;;;25.23;83.86
11049;BME280;5577;42.706;23.160;2023-06-10T10:15:11;93670.97;;;26.05;77.96
11049;BME280;5577;42.706;23.160;2023-06-10T10:20:52;93665.59;;;26.46;73.69
11049;BME280;5577;42.706;23.160;2023-06-10T10:26:54;93654.97;;;27.55;68.93
11049;BME280;5577;42.706;23.160;2023-06-10T10:29:46;93657.97;;;27.33;68.22
11049;BME280;5577;42.706;23.160;2023-06-10T10:32:46;93651.59;;;27.98;66.01
11049;BME280;5577;42.706;23.160;2023-06-10T10:35:36;93650.41;;;28.92;66.33
11049;BME280;5577;42.706;23.160;2023-06-10T10:38:21;93647.44;;;29.84;62.60
11049;BME280;5577;42.706;23.160;2023-06-10T10:41:05;93650.72;;;29.48;57.33
11049;BME280;5577;42.706;23.160;2023-06-10T10:43:50;93645.66;;;28.87;58.53
11049;BME280;5577;42.706;23.160;2023-06-10T10:46:42;93634.03;;;28.43;60.75
11049;BME280;5577;42.706;23.160;2023-06-10T10:49:28;93628.22;;;28.06;62.20
11049;BME280;5577;42.706;23.160;2023-06-10T10:52:13;93634.25;;;27.96;62.23
11049;BME280;5577;42.706;23.160;2023-06-10T10:54:57;93624.38;;;27.98;61.98
11049;BME280;5577;42.706;23.160;2023-06-10T10:57:41;93625.69;;;28.17;62.12
11049;BME280;5577;42.706;23.160;2023-06-10T11:00:33;93603.47;;;28.04;59.20
11049;BME280;5577;42.706;23.160;2023-06-10T11:03:17;93622.88;;;27.97;60.96
11049;BME280;5577;42.706;23.160;2023-06-10T11:06:12;93612.69;;;27.69;60.69
11049;BME280;5577;42.706;23.160;2023-06-10T11:08:56;93619.88;;;27.95;59.17
11049;BME280;5577;42.706;23.160;2023-06-10T11:11:49;93608.97;;;28.24;59.08
11049;BME280;5577;42.706;23.160;2023-06-10T11:14:33;93618.53;;;29.32;55.62
11049;BME280;5577;42.706;23.160;2023-06-10T11:17:19;93603.13;;;29.69;57.17
11049;BME280;5577;42.706;23.160;2023-06-10T11:20:04;93611.31;;;29.09;53.34
11049;BME280;5577;42.706;23.160;2023-06-10T11:22:58;93601.00;;;28.64;56.81
11049;BME280;5577;42.706;23.160;2023-06-10T11:25:44;93592.91;;;27.83;59.48
11049;BME280;5577;42.706;23.160;2023-06-10T11:28:28;93592.47;;;27.46;60.55
11049;BME280;5577;42.706;23.160;2023-06-10T11:31:19;93594.34;;;28.85;59.47
11049;BME280;5577;42.706;23.160;2023-06-10T11:34:05;93592.22;;;29.69;55.48
11049;BME280;5577;42.706;23.160;2023-06-10T11:36:51;93583.06;;;28.29;55.10
11049;BME280;5577;42.706;23.160;2023-06-10T11:39:35;93582.63;;;28.01;54.61
11049;BME280;5577;42.706;23.160;2023-06-10T11:42:19;93582.72;;;27.39;55.83
11049;BME280;5577;42.706;23.160;2023-06-10T11:45:06;93585.81;;;27.09;58.29
11049;BME280;5577;42.706;23.160;2023-06-10T11:47:59;93585.09;;;26.76;61.83
11049;BME280;5577;42.706;23.160;2023-06-10T11:50:43;93583.19;;;26.91;63.48
11049;BME280;5577;42.706;23.160;2023-06-10T11:53:27;93580.91;;;26.66;63.59
11049;BME280;5577;42.706;23.160;2023-06-10T11:56:11;93576.41;;;26.63;64.87
11049;BME280;5577;42.706;23.160;2023-06-10T11:58:57;93571.41;;;26.70;65.49
11049;BME280;5577;42.706;23.160;2023-06-10T12:01:44;93570.78;;;26.34;65.89
11049;BME280;5577;42.706;23.160;2023-06-10T12:04:28;93574.16;;;26.29;65.84
11049;BME280;5577;42.706;23.160;2023-06-10T12:07:19;93576.66;;;25.91;63.92
11049;BME280;5577;42.706;23.160;2023-06-10T12:10:04;93561.88;;;25.92;68.12
11049;BME280;5577;42.706;23.160;2023-06-10T12:12:48;93574.75;;;25.55;69.08
11049;BME280;5577;42.706;23.160;2023-06-10T12:15:32;93575.34;;;25.59;65.93
11049;BME280;5577;42.706;23.160;2023-06-10T12:21:02;93564.25;;;25.39;68.32
11049;BME280;5577;42.706;23.160;2023-06-10T12:24:09;93566.03;;;25.60;69.40
11049;BME280;5577;42.706;23.160;2023-06-10T12:26:53;93569.63;;;25.57;66.55
11049;BME280;5577;42.706;23.160;2023-06-10T12:29:39;93561.91;;;25.74;66.93
11049;BME280;5577;42.706;23.160;2023-06-10T12:32:44;93558.88;;;25.90;67.71
11049;BME280;5577;42.706;23.160;2023-06-10T12:35:29;93555.41;;;25.98;67.92
11049;BME280;5577;42.706;23.160;2023-06-10T12:38:13;93558.41;;;26.00;66.67
11049;BME280;5577;42.706;23.160;2023-06-10T12:41:02;93571.13;;;25.67;68.50
11049;BME280;5577;42.706;23.160;2023-06-10T12:43:47;93537.72;;;25.25;69.41
11049;BME280;5577;42.706;23.160;2023-06-10T12:46:38;93571.41;;;25.24;65.87
11049;BME280;5577;42.706;23.160;2023-06-10T12:49:22;93572.47;;;25.18;67.14
11049;BME280;5577;42.706;23.160;2023-06-10T12:52:06;93612.38;;;25.26;66.37
11049;BME280;5577;42.706;23.160;2023-06-10T12:54:51;93515.28;;;24.13;78.24
11049;BME280;5577;42.706;23.160;2023-06-10T12:57:35;93584.41;;;23.92;96.74
11049;BME280;5577;42.706;23.160;2023-06-10T13:00:19;93576.91;;;23.23;100.00
11049;BME280;5577;42.706;23.160;2023-06-10T13:03:03;93593.78;;;22.55;100.00
11049;BME280;5577;42.706;23.160;2023-06-10T13:05:49;93591.84;;;22.05;100.00
11049;BME280;5577;42.706;23.160;2023-06-10T13:08:33;93594.44;;;21.55;100.00
11049;BME280;5577;42.706;23.160;2023-06-10T13:11:17;93600.88;;;21.45;100.00
11049;BME280;5577;42.706;23.160;2023-06-10T13:14:02;93598.00;;;21.24;100.00
11049;BME280;5577;42.706;23.160;2023-06-10T13:16:46;93594.84;;;21.13;100.00
11049;BME280;5577;42.706;23.160;2023-06-10T13:19:30;93603.59;;;21.01;100.00
11049;BME280;5577;42.706;23.160;2023-06-10T13:22:14;93558.22;;;20.55;100.00
11049;BME280;5577;42.706;23.160;2023-06-10T13:24:59;93609.34;;;20.71;100.00
11049;BME280;5577;42.706;23.160;2023-06-10T13:27:43;93604.13;;;20.64;100.00
11049;BME280;5577;42.706;23.160;2023-06-10T13:30:27;93607.81;;;20.54;100.00
11049;BME280;5577;42.706;23.160;2023-06-10T13:33:11;93608.00;;;20.47;100.00
11049;BME280;5577;42.706;23.160;2023-06-10T13:35:56;93601.28;;;20.39;100.00
11049;BME280;5577;42.706;23.160;2023-06-10T13:38:40;93611.09;;;20.45;100.00
11049;BME280;5577;42.706;23.160;2023-06-10T13:41:24;93609.66;;;20.41;100.00
11049;BME280;5577;42.706;23.160;2023-06-10T13:44:08;93614.56;;;20.46;100.00
11049;BME280;5577;42.706;23.160;2023-06-10T13:46:52;93604.19;;;20.28;100.00
11049;BME280;5577;42.706;23.160;2023-06-10T13:49:36;93609.59;;;20.44;100.00
11049;BME280;5577;42.706;23.160;2023-06-10T13:52:21;93617.31;;;20.58;100.00
11049;BME280;5577;42.706;23.160;2023-06-10T13:55:05;93609.75;;;20.69;100.00
11049;BME280;5577;42.706;23.160;2023-06-10T13:57:49;93602.09;;;20.84;100.00
11049;BME280;5577;42.706;23.160;2023-06-10T14:00:33;93596.78;;;20.80;100.00
11049;BME280;5577;42.706;23.160;2023-06-10T14:03:17;93594.28;;;20.89;100.00
11049;BME280;5577;42.706;23.160;2023-06-10T14:06:01;93594.13;;;20.96;100.00
11049;BME280;5577;42.706;23.160;2023-06-10T14:08:46;93601.63;;;21.17;100.00
11049;BME280;5577;42.706;23.160;2023-06-10T14:11:30;93594.16;;;21.37;100.00
11049;BME280;5577;42.706;23.160;2023-06-10T14:14:14;93600.66;;;21.40;100.00
11049;BME280;5577;42.706;23.160;2023-06-10T14:16:59;93594.06;;;21.41;100.00
11049;BME280;5577;42.706;23.160;2023-06-10T14:19:43;93591.22;;;21.32;100.00
11049;BME280;5577;42.706;23.160;2023-06-10T14:22:27;93596.13;;;21.37;100.00
11049;BME280;5577;42.706;23.160;2023-06-10T14:25:11;93582.56;;;21.53;100.00
11049;BME280;5577;42.706;23.160;2023-06-10T14:27:55;93584.59;;;21.77;100.00
11049;BME280;5577;42.706;23.160;2023-06-10T14:30:39;93587.09;;;21.97;100.00
11049;BME280;5577;42.706;23.160;2023-06-10T14:33:24;93577.28;;;22.28;100.00
11049;BME280;5577;42.706;23.160;2023-06-10T14:36:08;93585.59;;;22.46;100.00
11049;BME280;5577;42.706;23.160;2023-06-10T14:38:51;93584.06;;;22.70;100.00
11049;BME280;5577;42.706;23.160;2023-06-10T14:41:35;93573.50;;;23.31;100.00